sensor_id;sensor_type;location;lat;lon;timestamp;temperature;humidity
23186;DHT22;11761;51.324;4.590;2023-02-26T00:01:25;-2.50;99.90
23186;DHT22;11761;51.324;4.590;2023-02-26T00:03:54;-2.50;99.90
23186;DHT22;11761;51.324;4.590;2023-02-26T00:06:20;-2.60;99.90
23186;DHT22;11761;51.324;4.590;2023-02-26T00:08:46;-2.70;99.90
23186;DHT22;11761;51.324;4.590;2023-02-26T00:11:13;-2.70;99.90
23186;DHT22;11761;51.324;4.590;2023-02-26T00:13:41;-2.70;99.90
23186;DHT22;11761;51.324;4.590;2023-02-26T00:18:56;-2.70;99.90
23186;DHT22;11761;51.324;4.590;2023-02-26T00:21:25;-2.70;99.90
23186;DHT22;11761;51.324;4.590;2023-02-26T00:23:52;-2.70;99.90
23186;DHT22;11761;51.324;4.590;2023-02-26T00:26:19;-2.70;99.90
23186;DHT22;11761;51.324;4.590;2023-02-26T00:28:46;-2.60;99.90
23186;DHT22;11761;51.324;4.590;2023-02-26T00:31:16;-2.60;99.90
23186;DHT22;11761;51.324;4.590;2023-02-26T00:33:43;-2.70;99.90
23186;DHT22;11761;51.324;4.590;2023-02-26T00:42:06;-2.70;99.90
23186;DHT22;11761;51.324;4.590;2023-02-26T00:44:32;-2.60;99.90
23186;DHT22;11761;51.324;4.590;2023-02-26T00:47:28;-2.60;99.90
23186;DHT22;11761;51.324;4.590;2023-02-26T00:50:24;-2.70;99.90
23186;DHT22;11761;51.324;4.590;2023-02-26T00:53:21;-2.60;99.90
23186;DHT22;11761;51.324;4.590;2023-02-26T00:55:50;-2.70;99.90
23186;DHT22;11761;51.324;4.590;2023-02-26T00:58:17;-2.70;99.90
23186;DHT22;11761;51.324;4.590;2023-02-26T01:00:43;-2.70;99.90
23186;DHT22;11761;51.324;4.590;2023-02-26T01:03:09;-2.70;99.90
23186;DHT22;11761;51.324;4.590;2023-02-26T01:05:37;-2.70;99.90
23186;DHT22;11761;51.324;4.590;2023-02-26T01:08:38;-2.70;99.90
23186;DHT22;11761;51.324;4.590;2023-02-26T01:11:07;-2.80;99.90
23186;DHT22;11761;51.324;4.590;2023-02-26T01:13:33;-2.80;99.90
23186;DHT22;11761;51.324;4.590;2023-02-26T01:16:05;-2.80;99.90
23186;DHT22;11761;51.324;4.590;2023-02-26T01:18:43;-2.70;99.90
23186;DHT22;11761;51.324;4.590;2023-02-26T01:21:18;-2.70;99.90
23186;DHT22;11761;51.324;4.590;2023-02-26T01:23:49;-2.70;99.90
23186;DHT22;11761;51.324;4.590;2023-02-26T01:26:23;-2.70;99.90
23186;DHT22;11761;51.324;4.590;2023-02-26T01:28:51;-2.70;99.90
23186;DHT22;11761;51.324;4.590;2023-02-26T01:31:31;-2.70;99.90
23186;DHT22;11761;51.324;4.590;2023-02-26T01:34:13;-2.70;99.90
23186;DHT22;11761;51.324;4.590;2023-02-26T01:36:45;-2.70;99.90
23186;DHT22;11761;51.324;4.590;2023-02-26T01:39:24;-2.60;99.90
23186;DHT22;11761;51.324;4.590;2023-02-26T01:41:54;-2.50;99.90
23186;DHT22;11761;51.324;4.590;2023-02-26T01:49:42;-2.50;99.90
23186;DHT22;11761;51.324;4.590;2023-02-26T01:54:56;-2.20;99.90
23186;DHT22;11761;51.324;4.590;2023-02-26T01:57:22;-2.00;99.90
23186;DHT22;11761;51.324;4.590;2023-02-26T01:59:51;-1.80;99.90
23186;DHT22;11761;51.324;4.590;2023-02-26T02:02:20;-1.60;99.90
23186;DHT22;11761;51.324;4.590;2023-02-26T02:04:47;-1.50;99.90
23186;DHT22;11761;51.324;4.590;2023-02-26T02:07:14;-1.30;99.90
23186;DHT22;11761;51.324;4.590;2023-02-26T02:09:41;-1.10;99.90
23186;DHT22;11761;51.324;4.590;2023-02-26T02:12:45;-1.00;99.90
23186;DHT22;11761;51.324;4.590;2023-02-26T02:15:50;-1.00;99.90
23186;DHT22;11761;51.324;4.590;2023-02-26T02:18:19;-1.10;99.90
23186;DHT22;11761;51.324;4.590;2023-02-26T02:21:07;-1.10;99.90
23186;DHT22;11761;51.324;4.590;2023-02-26T02:32:35;-0.60;99.90
23186;DHT22;11761;51.324;4.590;2023-02-26T02:35:48;-0.70;99.90
23186;DHT22;11761;51.324;4.590;2023-02-26T02:38:18;-0.50;99.90
23186;DHT22;11761;51.324;4.590;2023-02-26T02:40:48;-0.60;99.90
23186;DHT22;11761;51.324;4.590;2023-02-26T02:43:19;-0.70;99.90
23186;DHT22;11761;51.324;4.590;2023-02-26T02:48:27;-0.60;99.90
23186;DHT22;11761;51.324;4.590;2023-02-26T02:51:01;-0.60;99.90
23186;DHT22;11761;51.324;4.590;2023-02-26T02:53:45;-0.50;99.90
23186;DHT22;11761;51.324;4.590;2023-02-26T02:56:16;-0.50;99.90
23186;DHT22;11761;51.324;4.590;2023-02-26T02:58:53;-0.60;99.90
23186;DHT22;11761;51.324;4.590;2023-02-26T03:01:22;-0.60;99.90
23186;DHT22;11761;51.324;4.590;2023-02-26T03:04:33;-0.60;99.90
23186;DHT22;11761;51.324;4.590;2023-02-26T03:06:53;-0.70;99.90
23186;DHT22;11761;51.324;4.590;2023-02-26T03:09:19;-0.80;99.90
23186;DHT22;11761;51.324;4.590;2023-02-26T03:11:45;-0.80;99.90
23186;DHT22;11761;51.324;4.590;2023-02-26T03:14:12;-0.90;99.90
23186;DHT22;11761;51.324;4.590;2023-02-26T03:16:53;-0.90;99.90
23186;DHT22;11761;51.324;4.590;2023-02-26T03:19:35;-0.90;99.90
23186;DHT22;11761;51.324;4.590;2023-02-26T03:22:21;-0.90;99.90
23186;DHT22;11761;51.324;4.590;2023-02-26T03:27:45;-0.90;99.90
23186;DHT22;11761;51.324;4.590;2023-02-26T03:30:31;-1.00;99.90
23186;DHT22;11761;51.324;4.590;2023-02-26T03:33:25;-1.00;99.90
23186;DHT22;11761;51.324;4.590;2023-02-26T03:36:10;-1.00;99.90
23186;DHT22;11761;51.324;4.590;2023-02-26T03:44:34;-1.40;99.90
23186;DHT22;11761;51.324;4.590;2023-02-26T03:47:11;-1.30;99.90
23186;DHT22;11761;51.324;4.590;2023-02-26T03:49:58;-1.50;99.90
23186;DHT22;11761;51.324;4.590;2023-02-26T03:52:28;-1.60;99.90
23186;DHT22;11761;51.324;4.590;2023-02-26T03:55:02;-1.50;99.90
23186;DHT22;11761;51.324;4.590;2023-02-26T03:57:29;-1.40;99.90
23186;DHT22;11761;51.324;4.590;2023-02-26T03:59:55;-1.50;99.90
23186;DHT22;11761;51.324;4.590;2023-02-26T04:02:42;-1.50;99.90
23186;DHT22;11761;51.324;4.590;2023-02-26T04:05:16;-1.40;99.90
23186;DHT22;11761;51.324;4.590;2023-02-26T04:07:44;-1.30;99.90
23186;DHT22;11761;51.324;4.590;2023-02-26T04:10:18;-1.30;99.90
23186;DHT22;11761;51.324;4.590;2023-02-26T04:12:46;-1.30;99.90
23186;DHT22;11761;51.324;4.590;2023-02-26T04:15:13;-1.30;99.90
23186;DHT22;11761;51.324;4.590;2023-02-26T04:17:39;-1.30;99.90
23186;DHT22;11761;51.324;4.590;2023-02-26T04:20:05;-1.30;99.90
23186;DHT22;11761;51.324;4.590;2023-02-26T04:22:36;-1.30;99.90
23186;DHT22;11761;51.324;4.590;2023-02-26T04:25:03;-1.40;99.90
23186;DHT22;11761;51.324;4.590;2023-02-26T04:27:30;-1.40;99.90
23186;DHT22;11761;51.324;4.590;2023-02-26T04:29:56;-1.40;99.90
23186;DHT22;11761;51.324;4.590;2023-02-26T04:32:22;-1.40;99.90
23186;DHT22;11761;51.324;4.590;2023-02-26T04:34:52;-1.40;99.90
23186;DHT22;11761;51.324;4.590;2023-02-26T04:37:18;-1.40;99.90
23186;DHT22;11761;51.324;4.590;2023-02-26T04:39:44;-1.40;99.90
23186;DHT22;11761;51.324;4.590;2023-02-26T04:42:10;-1.30;99.90
23186;DHT22;11761;51.324;4.590;2023-02-26T04:44:36;-1.30;99.90
23186;DHT22;11761;51.324;4.590;2023-02-26T04:47:02;-1.30;99.90
23186;DHT22;11761;51.324;4.590;2023-02-26T04:49:28;-1.30;99.90
23186;DHT22;11761;51.324;4.590;2023-02-26T04:51:54;-1.40;99.90
23186;DHT22;11761;51.324;4.590;2023-02-26T04:54:20;-1.50;99.90
23186;DHT22;11761;51.324;4.590;2023-02-26T04:56:46;-1.60;99.90
23186;DHT22;11761;51.324;4.590;2023-02-26T04:59:12;-1.50;99.90
23186;DHT22;11761;51.324;4.590;2023-02-26T05:01:38;-1.50;99.90
23186;DHT22;11761;51.324;4.590;2023-02-26T05:04:04;-1.50;99.90
23186;DHT22;11761;51.324;4.590;2023-02-26T05:06:30;-1.50;99.90
23186;DHT22;11761;51.324;4.590;2023-02-26T05:08:57;-1.60;99.90
23186;DHT22;11761;51.324;4.590;2023-02-26T05:11:23;-1.70;99.90
23186;DHT22;11761;51.324;4.590;2023-02-26T05:13:49;-1.70;99.90
23186;DHT22;11761;51.324;4.590;2023-02-26T05:16:15;-1.70;99.90
23186;DHT22;11761;51.324;4.590;2023-02-26T05:18:41;-1.70;99.90
23186;DHT22;11761;51.324;4.590;2023-02-26T05:21:07;-1.70;99.90
23186;DHT22;11761;51.324;4.590;2023-02-26T05:23:33;-1.70;99.90
23186;DHT22;11761;51.324;4.590;2023-02-26T05:26:00;-1.40;99.90
23186;DHT22;11761;51.324;4.590;2023-02-26T05:28:26;-1.40;99.90
23186;DHT22;11761;51.324;4.590;2023-02-26T05:30:52;-1.30;99.90
23186;DHT22;11761;51.324;4.590;2023-02-26T05:33:20;-1.10;99.90
23186;DHT22;11761;51.324;4.590;2023-02-26T05:35:46;-1.20;99.90
23186;DHT22;11761;51.324;4.590;2023-02-26T05:38:14;-1.30;99.90
23186;DHT22;11761;51.324;4.590;2023-02-26T05:40:40;-1.40;99.90
23186;DHT22;11761;51.324;4.590;2023-02-26T05:43:07;-1.30;99.90
23186;DHT22;11761;51.324;4.590;2023-02-26T05:45:33;-1.30;99.90
23186;DHT22;11761;51.324;4.590;2023-02-26T05:48:00;-1.30;99.90
23186;DHT22;11761;51.324;4.590;2023-02-26T05:50:27;-1.20;99.90
23186;DHT22;11761;51.324;4.590;2023-02-26T05:52:53;-1.20;99.90
23186;DHT22;11761;51.324;4.590;2023-02-26T05:55:18;-1.00;99.90
23186;DHT22;11761;51.324;4.590;2023-02-26T05:57:45;-1.00;99.90
23186;DHT22;11761;51.324;4.590;2023-02-26T06:00:13;-1.20;99.90
23186;DHT22;11761;51.324;4.590;2023-02-26T06:02:39;-1.20;99.90
23186;DHT22;11761;51.324;4.590;2023-02-26T06:05:06;-1.30;99.90
23186;DHT22;11761;51.324;4.590;2023-02-26T06:07:33;-1.40;99.90
23186;DHT22;11761;51.324;4.590;2023-02-26T06:09:59;-1.50;99.90
23186;DHT22;11761;51.324;4.590;2023-02-26T06:12:25;-1.70;99.90
23186;DHT22;11761;51.324;4.590;2023-02-26T06:14:51;-1.80;99.90
23186;DHT22;11761;51.324;4.590;2023-02-26T06:17:17;-1.90;99.90
23186;DHT22;11761;51.324;4.590;2023-02-26T06:19:43;-2.10;99.90
23186;DHT22;11761;51.324;4.590;2023-02-26T06:22:09;-2.00;99.90
23186;DHT22;11761;51.324;4.590;2023-02-26T06:24:35;-2.10;99.90
23186;DHT22;11761;51.324;4.590;2023-02-26T06:27:01;-2.20;99.90
23186;DHT22;11761;51.324;4.590;2023-02-26T06:29:27;-2.10;99.90
23186;DHT22;11761;51.324;4.590;2023-02-26T06:31:53;-2.20;99.90
23186;DHT22;11761;51.324;4.590;2023-02-26T06:34:19;-2.30;99.90
23186;DHT22;11761;51.324;4.590;2023-02-26T06:36:47;-2.20;99.90
23186;DHT22;11761;51.324;4.590;2023-02-26T06:39:13;-2.10;99.90
23186;DHT22;11761;51.324;4.590;2023-02-26T06:41:39;-1.90;99.90
23186;DHT22;11761;51.324;4.590;2023-02-26T06:44:05;-1.90;99.90
23186;DHT22;11761;51.324;4.590;2023-02-26T06:46:31;-1.90;99.90
23186;DHT22;11761;51.324;4.590;2023-02-26T06:48:57;-1.90;99.90
23186;DHT22;11761;51.324;4.590;2023-02-26T06:51:22;-1.60;99.90
23186;DHT22;11761;51.324;4.590;2023-02-26T06:53:48;-1.60;99.90
23186;DHT22;11761;51.324;4.590;2023-02-26T06:56:14;-1.50;99.90
23186;DHT22;11761;51.324;4.590;2023-02-26T06:58:40;-1.50;99.90
23186;DHT22;11761;51.324;4.590;2023-02-26T07:01:06;-1.20;99.90
23186;DHT22;11761;51.324;4.590;2023-02-26T07:03:33;-1.00;99.90
23186;DHT22;11761;51.324;4.590;2023-02-26T07:05:59;-1.00;99.90
23186;DHT22;11761;51.324;4.590;2023-02-26T07:08:26;-0.90;99.90
23186;DHT22;11761;51.324;4.590;2023-02-26T07:10:51;-0.80;99.90
23186;DHT22;11761;51.324;4.590;2023-02-26T07:13:18;-0.70;99.90
23186;DHT22;11761;51.324;4.590;2023-02-26T07:15:43;-0.80;99.90
23186;DHT22;11761;51.324;4.590;2023-02-26T07:18:10;-0.60;99.90
23186;DHT22;11761;51.324;4.590;2023-02-26T07:20:36;-0.50;99.90
23186;DHT22;11761;51.324;4.590;2023-02-26T07:23:02;-0.30;99.90
23186;DHT22;11761;51.324;4.590;2023-02-26T07:25:28;-0.10;99.90
23186;DHT22;11761;51.324;4.590;2023-02-26T07:27:54;-0.20;99.90
23186;DHT22;11761;51.324;4.590;2023-02-26T07:30:21;-0.30;99.90
23186;DHT22;11761;51.324;4.590;2023-02-26T07:32:46;-0.10;99.90
23186;DHT22;11761;51.324;4.590;2023-02-26T07:35:12;-0.10;99.90
23186;DHT22;11761;51.324;4.590;2023-02-26T07:37:38;-0.10;99.90
23186;DHT22;11761;51.324;4.590;2023-02-26T07:40:05;0.00;99.90
23186;DHT22;11761;51.324;4.590;2023-02-26T07:42:31;0.10;99.90
23186;DHT22;11761;51.324;4.590;2023-02-26T07:44:57;0.20;99.90
23186;DHT22;11761;51.324;4.590;2023-02-26T07:47:24;0.30;99.90
23186;DHT22;11761;51.324;4.590;2023-02-26T07:49:50;0.40;99.90
23186;DHT22;11761;51.324;4.590;2023-02-26T07:52:16;0.40;99.90
23186;DHT22;11761;51.324;4.590;2023-02-26T07:54:43;0.40;99.90
23186;DHT22;11761;51.324;4.590;2023-02-26T07:57:09;0.50;99.90
23186;DHT22;11761;51.324;4.590;2023-02-26T07:59:35;0.60;99.90
23186;DHT22;11761;51.324;4.590;2023-02-26T08:02:01;0.70;99.90
23186;DHT22;11761;51.324;4.590;2023-02-26T08:04:27;0.70;99.90
23186;DHT22;11761;51.324;4.590;2023-02-26T08:06:53;0.70;99.90
23186;DHT22;11761;51.324;4.590;2023-02-26T08:09:20;0.90;99.90
23186;DHT22;11761;51.324;4.590;2023-02-26T08:11:46;1.20;99.90
23186;DHT22;11761;51.324;4.590;2023-02-26T08:14:12;1.80;99.90
23186;DHT22;11761;51.324;4.590;2023-02-26T08:16:39;1.50;99.90
23186;DHT22;11761;51.324;4.590;2023-02-26T08:19:05;1.50;99.90
23186;DHT22;11761;51.324;4.590;2023-02-26T08:21:32;1.70;99.90
23186;DHT22;11761;51.324;4.590;2023-02-26T08:23:58;1.80;99.90
23186;DHT22;11761;51.324;4.590;2023-02-26T08:26:24;1.50;99.90
23186;DHT22;11761;51.324;4.590;2023-02-26T08:28:50;1.60;99.90
23186;DHT22;11761;51.324;4.590;2023-02-26T08:31:16;1.90;99.90
23186;DHT22;11761;51.324;4.590;2023-02-26T08:33:42;2.10;99.90
23186;DHT22;11761;51.324;4.590;2023-02-26T08:36:08;2.00;99.90
23186;DHT22;11761;51.324;4.590;2023-02-26T08:38:35;1.80;99.90
23186;DHT22;11761;51.324;4.590;2023-02-26T08:41:02;1.60;99.90
23186;DHT22;11761;51.324;4.590;2023-02-26T08:43:28;2.00;99.90
23186;DHT22;11761;51.324;4.590;2023-02-26T08:45:56;2.00;99.90
23186;DHT22;11761;51.324;4.590;2023-02-26T08:48:23;2.00;99.90
23186;DHT22;11761;51.324;4.590;2023-02-26T08:50:49;2.10;99.90
23186;DHT22;11761;51.324;4.590;2023-02-26T08:53:15;3.00;99.90
23186;DHT22;11761;51.324;4.590;2023-02-26T08:55:41;3.60;99.90
23186;DHT22;11761;51.324;4.590;2023-02-26T08:58:10;5.40;99.90
23186;DHT22;11761;51.324;4.590;2023-02-26T09:00:35;4.30;99.90
23186;DHT22;11761;51.324;4.590;2023-02-26T09:03:01;2.70;99.90
23186;DHT22;11761;51.324;4.590;2023-02-26T09:05:27;2.70;99.90
23186;DHT22;11761;51.324;4.590;2023-02-26T09:07:53;3.50;99.90
23186;DHT22;11761;51.324;4.590;2023-02-26T09:10:19;4.10;99.90
23186;DHT22;11761;51.324;4.590;2023-02-26T09:12:45;3.40;99.90
23186;DHT22;11761;51.324;4.590;2023-02-26T09:15:12;3.10;99.90
23186;DHT22;11761;51.324;4.590;2023-02-26T09:17:39;2.90;99.90
23186;DHT22;11761;51.324;4.590;2023-02-26T09:20:06;2.70;99.90
23186;DHT22;11761;51.324;4.590;2023-02-26T09:22:32;2.80;99.90
23186;DHT22;11761;51.324;4.590;2023-02-26T09:24:58;3.00;99.90
23186;DHT22;11761;51.324;4.590;2023-02-26T09:27:23;3.50;99.90
23186;DHT22;11761;51.324;4.590;2023-02-26T09:29:49;3.40;99.90
23186;DHT22;11761;51.324;4.590;2023-02-26T09:32:15;3.90;99.90
23186;DHT22;11761;51.324;4.590;2023-02-26T09:34:41;4.70;99.90
23186;DHT22;11761;51.324;4.590;2023-02-26T09:37:08;5.20;99.90
23186;DHT22;11761;51.324;4.590;2023-02-26T09:39:35;5.20;99.90
23186;DHT22;11761;51.324;4.590;2023-02-26T09:42:28;4.80;99.90
23186;DHT22;11761;51.324;4.590;2023-02-26T09:44:59;4.10;99.90
23186;DHT22;11761;51.324;4.590;2023-02-26T09:47:42;3.70;99.90
23186;DHT22;11761;51.324;4.590;2023-02-26T09:52:54;4.60;99.90
23186;DHT22;11761;51.324;4.590;2023-02-26T09:57:53;5.50;99.90
23186;DHT22;11761;51.324;4.590;2023-02-26T10:03:30;4.70;99.90
23186;DHT22;11761;51.324;4.590;2023-02-26T10:06:22;4.80;99.90
23186;DHT22;11761;51.324;4.590;2023-02-26T10:12:20;4.20;99.90
23186;DHT22;11761;51.324;4.590;2023-02-26T10:17:17;4.80;99.90
23186;DHT22;11761;51.324;4.590;2023-02-26T10:19:48;4.80;99.90
23186;DHT22;11761;51.324;4.590;2023-02-26T10:22:33;4.80;99.90
23186;DHT22;11761;51.324;4.590;2023-02-26T10:25:16;4.40;99.90
23186;DHT22;11761;51.324;4.590;2023-02-26T10:27:58;4.20;99.90
23186;DHT22;11761;51.324;4.590;2023-02-26T10:30:38;3.90;99.90
23186;DHT22;11761;51.324;4.590;2023-02-26T10:36:00;5.10;99.90
23186;DHT22;11761;51.324;4.590;2023-02-26T10:38:30;5.30;99.90
23186;DHT22;11761;51.324;4.590;2023-02-26T10:41:01;5.30;99.90
23186;DHT22;11761;51.324;4.590;2023-02-26T10:43:39;5.00;99.90
23186;DHT22;11761;51.324;4.590;2023-02-26T10:46:33;5.00;99.90
23186;DHT22;11761;51.324;4.590;2023-02-26T10:51:56;4.40;99.90
23186;DHT22;11761;51.324;4.590;2023-02-26T10:54:27;4.60;99.90
23186;DHT22;11761;51.324;4.590;2023-02-26T10:56:54;4.10;99.90
23186;DHT22;11761;51.324;4.590;2023-02-26T10:59:21;3.90;99.90
23186;DHT22;11761;51.324;4.590;2023-02-26T11:01:49;4.50;99.90
23186;DHT22;11761;51.324;4.590;2023-02-26T11:04:22;4.00;99.90
23186;DHT22;11761;51.324;4.590;2023-02-26T11:06:53;4.20;99.90
23186;DHT22;11761;51.324;4.590;2023-02-26T11:09:38;4.40;99.90
23186;DHT22;11761;51.324;4.590;2023-02-26T11:12:14;4.60;99.90
23186;DHT22;11761;51.324;4.590;2023-02-26T11:14:46;4.70;99.90
23186;DHT22;11761;51.324;4.590;2023-02-26T11:17:23;5.30;99.90
23186;DHT22;11761;51.324;4.590;2023-02-26T11:19:58;5.10;99.90
23186;DHT22;11761;51.324;4.590;2023-02-26T11:22:27;6.20;99.90
23186;DHT22;11761;51.324;4.590;2023-02-26T11:24:55;5.10;99.90
23186;DHT22;11761;51.324;4.590;2023-02-26T11:27:29;4.60;99.90
23186;DHT22;11761;51.324;4.590;2023-02-26T11:29:58;5.20;99.90
23186;DHT22;11761;51.324;4.590;2023-02-26T11:32:33;4.90;99.90
23186;DHT22;11761;51.324;4.590;2023-02-26T11:35:00;5.90;99.90
23186;DHT22;11761;51.324;4.590;2023-02-26T11:37:38;5.70;99.90
23186;DHT22;11761;51.324;4.590;2023-02-26T11:40:13;5.90;99.90
23186;DHT22;11761;51.324;4.590;2023-02-26T11:42:48;6.10;99.90
23186;DHT22;11761;51.324;4.590;2023-02-26T11:45:17;5.60;99.90
23186;DHT22;11761;51.324;4.590;2023-02-26T11:47:46;5.20;99.90
23186;DHT22;11761;51.324;4.590;2023-02-26T11:50:16;5.40;99.90
23186;DHT22;11761;51.324;4.590;2023-02-26T11:52:55;5.00;99.90
23186;DHT22;11761;51.324;4.590;2023-02-26T11:55:27;5.80;99.90
23186;DHT22;11761;51.324;4.590;2023-02-26T11:57:54;6.30;99.90
23186;DHT22;11761;51.324;4.590;2023-02-26T12:00:35;6.30;99.90
23186;DHT22;11761;51.324;4.590;2023-02-26T12:03:05;6.20;99.90
23186;DHT22;11761;51.324;4.590;2023-02-26T12:05:33;6.10;99.90
23186;DHT22;11761;51.324;4.590;2023-02-26T12:08:11;6.10;99.90
23186;DHT22;11761;51.324;4.590;2023-02-26T12:16:24;7.00;99.90
23186;DHT22;11761;51.324;4.590;2023-02-26T12:18:55;7.30;99.90
23186;DHT22;11761;51.324;4.590;2023-02-26T12:33:11;6.20;99.90
23186;DHT22;11761;51.324;4.590;2023-02-26T12:38:51;7.60;99.90
23186;DHT22;11761;51.324;4.590;2023-02-26T12:41:23;7.50;99.90
23186;DHT22;11761;51.324;4.590;2023-02-26T12:43:56;6.50;99.90
23186;DHT22;11761;51.324;4.590;2023-02-26T12:52:52;6.20;99.90
23186;DHT22;11761;51.324;4.590;2023-02-26T13:09:29;6.70;99.90
23186;DHT22;11761;51.324;4.590;2023-02-26T13:14:57;6.30;99.90
23186;DHT22;11761;51.324;4.590;2023-02-26T13:17:42;6.40;99.90
23186;DHT22;11761;51.324;4.590;2023-02-26T13:20:14;7.30;99.90
23186;DHT22;11761;51.324;4.590;2023-02-26T13:22:55;7.20;99.90
23186;DHT22;11761;51.324;4.590;2023-02-26T13:25:42;6.90;99.90
23186;DHT22;11761;51.324;4.590;2023-02-26T13:31:18;6.50;99.90
23186;DHT22;11761;51.324;4.590;2023-02-26T13:33:48;7.20;99.90
23186;DHT22;11761;51.324;4.590;2023-02-26T13:36:16;7.60;99.90
23186;DHT22;11761;51.324;4.590;2023-02-26T13:52:24;7.60;99.90
23186;DHT22;11761;51.324;4.590;2023-02-26T13:54:52;7.30;99.90
23186;DHT22;11761;51.324;4.590;2023-02-26T13:57:49;7.50;99.90
23186;DHT22;11761;51.324;4.590;2023-02-26T14:00:32;7.80;99.90
23186;DHT22;11761;51.324;4.590;2023-02-26T14:08:18;6.80;99.90
23186;DHT22;11761;51.324;4.590;2023-02-26T14:13:18;7.10;99.90
23186;DHT22;11761;51.324;4.590;2023-02-26T14:16:11;7.30;99.90
23186;DHT22;11761;51.324;4.590;2023-02-26T14:18:49;6.40;99.90
23186;DHT22;11761;51.324;4.590;2023-02-26T14:21:36;7.20;99.90
23186;DHT22;11761;51.324;4.590;2023-02-26T14:27:03;7.00;99.90
23186;DHT22;11761;51.324;4.590;2023-02-26T14:29:43;6.20;99.90
23186;DHT22;11761;51.324;4.590;2023-02-26T14:34:46;7.50;99.90
23186;DHT22;11761;51.324;4.590;2023-02-26T14:37:15;7.20;99.90
23186;DHT22;11761;51.324;4.590;2023-02-26T14:39:56;7.60;99.90
23186;DHT22;11761;51.324;4.590;2023-02-26T14:42:36;7.50;99.90
23186;DHT22;11761;51.324;4.590;2023-02-26T14:47:36;8.00;99.70
23186;DHT22;11761;51.324;4.590;2023-02-26T14:50:04;8.10;99.90
23186;DHT22;11761;51.324;4.590;2023-02-26T14:58:07;7.50;99.60
23186;DHT22;11761;51.324;4.590;2023-02-26T15:03:39;7.40;99.90
23186;DHT22;11761;51.324;4.590;2023-02-26T15:12:36;6.50;99.70
23186;DHT22;11761;51.324;4.590;2023-02-26T15:23:41;5.70;99.90
23186;DHT22;11761;51.324;4.590;2023-02-26T15:26:17;5.60;99.90
23186;DHT22;11761;51.324;4.590;2023-02-26T15:28:44;5.60;99.90
23186;DHT22;11761;51.324;4.590;2023-02-26T15:31:11;5.50;99.90
23186;DHT22;11761;51.324;4.590;2023-02-26T15:33:38;5.40;99.90
23186;DHT22;11761;51.324;4.590;2023-02-26T15:36:18;5.50;99.90
23186;DHT22;11761;51.324;4.590;2023-02-26T15:38:49;5.50;99.90
23186;DHT22;11761;51.324;4.590;2023-02-26T15:41:16;5.40;99.90
23186;DHT22;11761;51.324;4.590;2023-02-26T15:43:52;5.40;99.90
23186;DHT22;11761;51.324;4.590;2023-02-26T15:46:25;5.40;99.90
23186;DHT22;11761;51.324;4.590;2023-02-26T15:48:55;5.30;99.90
23186;DHT22;11761;51.324;4.590;2023-02-26T15:51:31;5.40;99.90
23186;DHT22;11761;51.324;4.590;2023-02-26T15:54:15;5.30;99.90
23186;DHT22;11761;51.324;4.590;2023-02-26T15:56:42;5.30;99.90
23186;DHT22;11761;51.324;4.590;2023-02-26T15:59:12;5.30;99.90
23186;DHT22;11761;51.324;4.590;2023-02-26T16:01:43;5.30;99.90
23186;DHT22;11761;51.324;4.590;2023-02-26T16:04:17;5.30;99.90
23186;DHT22;11761;51.324;4.590;2023-02-26T16:06:48;5.20;99.90
23186;DHT22;11761;51.324;4.590;2023-02-26T16:09:29;5.10;99.90
23186;DHT22;11761;51.324;4.590;2023-02-26T16:11:58;5.20;99.90
23186;DHT22;11761;51.324;4.590;2023-02-26T16:14:30;5.10;99.90
23186;DHT22;11761;51.324;4.590;2023-02-26T16:16:57;5.10;99.90
23186;DHT22;11761;51.324;4.590;2023-02-26T16:19:43;5.00;99.90
23186;DHT22;11761;51.324;4.590;2023-02-26T16:25:06;4.90;99.90
23186;DHT22;11761;51.324;4.590;2023-02-26T16:27:34;4.90;99.90
23186;DHT22;11761;51.324;4.590;2023-02-26T16:30:02;4.70;99.90
23186;DHT22;11761;51.324;4.590;2023-02-26T16:32:30;4.50;99.90
23186;DHT22;11761;51.324;4.590;2023-02-26T16:35:00;4.50;99.90
23186;DHT22;11761;51.324;4.590;2023-02-26T16:37:34;4.50;99.90
23186;DHT22;11761;51.324;4.590;2023-02-26T16:47:54;4.10;99.90
23186;DHT22;11761;51.324;4.590;2023-02-26T16:50:27;4.10;99.90
23186;DHT22;11761;51.324;4.590;2023-02-26T16:55:29;4.00;99.90
23186;DHT22;11761;51.324;4.590;2023-02-26T16:57:57;4.00;99.90
23186;DHT22;11761;51.324;4.590;2023-02-26T17:00:25;3.90;99.90
23186;DHT22;11761;51.324;4.590;2023-02-26T17:03:10;3.80;99.90
23186;DHT22;11761;51.324;4.590;2023-02-26T17:05:40;3.80;99.90
23186;DHT22;11761;51.324;4.590;2023-02-26T17:08:13;3.60;99.90
23186;DHT22;11761;51.324;4.590;2023-02-26T17:10:48;3.50;99.90
23186;DHT22;11761;51.324;4.590;2023-02-26T17:13:25;3.40;99.90
23186;DHT22;11761;51.324;4.590;2023-02-26T17:15:52;3.40;99.90
23186;DHT22;11761;51.324;4.590;2023-02-26T17:18:20;3.40;99.90
23186;DHT22;11761;51.324;4.590;2023-02-26T17:20:46;3.30;99.90
23186;DHT22;11761;51.324;4.590;2023-02-26T17:23:16;3.10;99.90
23186;DHT22;11761;51.324;4.590;2023-02-26T17:25:45;3.00;99.90
23186;DHT22;11761;51.324;4.590;2023-02-26T17:28:24;2.80;99.90
23186;DHT22;11761;51.324;4.590;2023-02-26T17:30:51;2.60;99.90
23186;DHT22;11761;51.324;4.590;2023-02-26T17:33:19;2.30;99.90
23186;DHT22;11761;51.324;4.590;2023-02-26T17:35:45;2.30;99.90
23186;DHT22;11761;51.324;4.590;2023-02-26T17:38:13;2.30;99.90
23186;DHT22;11761;51.324;4.590;2023-02-26T17:40:42;2.30;99.90
23186;DHT22;11761;51.324;4.590;2023-02-26T17:43:10;2.40;99.90
23186;DHT22;11761;51.324;4.590;2023-02-26T17:45:38;2.30;99.90
23186;DHT22;11761;51.324;4.590;2023-02-26T17:48:05;2.10;99.90
23186;DHT22;11761;51.324;4.590;2023-02-26T17:50:47;2.20;99.90
23186;DHT22;11761;51.324;4.590;2023-02-26T17:53:16;2.10;99.90
23186;DHT22;11761;51.324;4.590;2023-02-26T17:55:44;1.90;99.90
23186;DHT22;11761;51.324;4.590;2023-02-26T17:58:16;1.80;99.90
23186;DHT22;11761;51.324;4.590;2023-02-26T18:00:43;1.70;99.90
23186;DHT22;11761;51.324;4.590;2023-02-26T18:03:15;1.50;99.90
23186;DHT22;11761;51.324;4.590;2023-02-26T18:05:42;1.40;99.90
23186;DHT22;11761;51.324;4.590;2023-02-26T18:08:24;1.30;99.90
23186;DHT22;11761;51.324;4.590;2023-02-26T18:10:51;1.20;99.90
23186;DHT22;11761;51.324;4.590;2023-02-26T18:13:18;1.10;99.90
23186;DHT22;11761;51.324;4.590;2023-02-26T18:15:44;1.40;99.90
23186;DHT22;11761;51.324;4.590;2023-02-26T18:18:11;1.40;99.90
23186;DHT22;11761;51.324;4.590;2023-02-26T18:20:38;1.40;99.90
23186;DHT22;11761;51.324;4.590;2023-02-26T18:23:04;1.40;99.90
23186;DHT22;11761;51.324;4.590;2023-02-26T18:25:34;1.30;99.90
23186;DHT22;11761;51.324;4.590;2023-02-26T18:28:02;1.30;99.90
23186;DHT22;11761;51.324;4.590;2023-02-26T18:30:31;1.10;99.90
23186;DHT22;11761;51.324;4.590;2023-02-26T18:32:58;1.10;99.90
23186;DHT22;11761;51.324;4.590;2023-02-26T18:35:25;1.00;99.90
23186;DHT22;11761;51.324;4.590;2023-02-26T18:37:53;1.10;99.90
23186;DHT22;11761;51.324;4.590;2023-02-26T18:40:22;1.20;99.90
23186;DHT22;11761;51.324;4.590;2023-02-26T18:42:50;1.10;99.90
23186;DHT22;11761;51.324;4.590;2023-02-26T18:45:17;1.00;99.90
23186;DHT22;11761;51.324;4.590;2023-02-26T18:47:44;0.90;99.90
23186;DHT22;11761;51.324;4.590;2023-02-26T18:50:13;0.90;99.90
23186;DHT22;11761;51.324;4.590;2023-02-26T18:52:39;0.70;99.90